Terminal Aerodrome Forecast
Issued by NWS

Home | Current Version | Previous Version | Text Only | Print | Product List | Glossary On
Versions: 1 2 3 4 5 6 7 8 9 10 11 12 13 14 15 16 17 18 19 20 21 22
000
FTUS46 KLOX 101800 AAA
TAFVNY
TAF AMD
KVNY 101810Z 1018/1118 VRB03KT P6SM SCT016
     FM102000 15008KT P6SM SKC
     FM110400 VRB03KT P6SM SKC
     FM110930 VRB03KT 6SM BR BKN009=

USA.gov is the U.S. government's official web portal to all federal, state and local government web resources and services.